sensor_id;sensor_type;location;lat;lon;timestamp;P1;durP1;ratioP1;P2;durP2;ratioP2
57635;SDS011;43465;50.728;4.160;2022-09-09T00:12:53;12.50;;;4.72;;
57635;SDS011;43465;50.728;4.160;2022-09-09T00:15:31;14.65;;;5.03;;
57635;SDS011;43465;50.728;4.160;2022-09-09T00:26:06;7.80;;;3.40;;
57635;SDS011;43465;50.728;4.160;2022-09-09T00:28:36;11.57;;;3.78;;
57635;SDS011;43465;50.728;4.160;2022-09-09T00:31:14;6.05;;;3.80;;
57635;SDS011;43465;50.728;4.160;2022-09-09T00:33:45;7.03;;;3.97;;
57635;SDS011;43465;50.728;4.160;2022-09-09T00:36:14;11.38;;;4.50;;
57635;SDS011;43465;50.728;4.160;2022-09-09T00:38:47;8.77;;;3.30;;
57635;SDS011;43465;50.728;4.160;2022-09-09T00:44:00;6.20;;;2.78;;
57635;SDS011;43465;50.728;4.160;2022-09-09T00:46:56;11.73;;;3.17;;
57635;SDS011;43465;50.728;4.160;2022-09-09T00:55:41;9.02;;;2.70;;
57635;SDS011;43465;50.728;4.160;2022-09-09T00:58:13;8.70;;;2.63;;
57635;SDS011;43465;50.728;4.160;2022-09-09T01:00:46;6.85;;;2.97;;
57635;SDS011;43465;50.728;4.160;2022-09-09T01:11:26;11.27;;;3.05;;
57635;SDS011;43465;50.728;4.160;2022-09-09T01:14:11;11.55;;;3.22;;
57635;SDS011;43465;50.728;4.160;2022-09-09T01:16:39;10.13;;;3.40;;
57635;SDS011;43465;50.728;4.160;2022-09-09T01:19:07;14.23;;;3.45;;
57635;SDS011;43465;50.728;4.160;2022-09-09T01:27:01;10.00;;;3.47;;
57635;SDS011;43465;50.728;4.160;2022-09-09T01:29:28;6.30;;;3.35;;
57635;SDS011;43465;50.728;4.160;2022-09-09T01:32:01;9.55;;;4.00;;
57635;SDS011;43465;50.728;4.160;2022-09-09T01:34:48;11.27;;;3.55;;
57635;SDS011;43465;50.728;4.160;2022-09-09T01:37:16;11.88;;;3.95;;
57635;SDS011;43465;50.728;4.160;2022-09-09T01:39:42;13.88;;;4.10;;
57635;SDS011;43465;50.728;4.160;2022-09-09T01:42:09;10.82;;;3.67;;
57635;SDS011;43465;50.728;4.160;2022-09-09T01:44:39;12.68;;;4.55;;
57635;SDS011;43465;50.728;4.160;2022-09-09T01:47:05;14.32;;;4.47;;
57635;SDS011;43465;50.728;4.160;2022-09-09T01:49:31;14.50;;;3.95;;
57635;SDS011;43465;50.728;4.160;2022-09-09T01:52:00;16.30;;;4.25;;
57635;SDS011;43465;50.728;4.160;2022-09-09T01:54:28;13.65;;;4.05;;
57635;SDS011;43465;50.728;4.160;2022-09-09T02:08:00;13.15;;;4.25;;
57635;SDS011;43465;50.728;4.160;2022-09-09T02:10:33;13.07;;;3.97;;
57635;SDS011;43465;50.728;4.160;2022-09-09T02:13:07;12.73;;;4.20;;
57635;SDS011;43465;50.728;4.160;2022-09-09T02:15:58;15.57;;;4.03;;
57635;SDS011;43465;50.728;4.160;2022-09-09T02:21:20;11.50;;;3.80;;
57635;SDS011;43465;50.728;4.160;2022-09-09T02:23:47;11.50;;;3.95;;
57635;SDS011;43465;50.728;4.160;2022-09-09T02:26:17;10.88;;;3.88;;
57635;SDS011;43465;50.728;4.160;2022-09-09T02:28:47;12.82;;;3.72;;
57635;SDS011;43465;50.728;4.160;2022-09-09T02:31:15;14.13;;;3.85;;
57635;SDS011;43465;50.728;4.160;2022-09-09T02:33:44;16.42;;;3.97;;
57635;SDS011;43465;50.728;4.160;2022-09-09T02:36:17;14.55;;;4.20;;
57635;SDS011;43465;50.728;4.160;2022-09-09T02:38:45;15.25;;;4.40;;
57635;SDS011;43465;50.728;4.160;2022-09-09T02:41:17;16.48;;;3.83;;
57635;SDS011;43465;50.728;4.160;2022-09-09T02:43:47;10.93;;;4.13;;
57635;SDS011;43465;50.728;4.160;2022-09-09T02:49:18;17.40;;;4.53;;
57635;SDS011;43465;50.728;4.160;2022-09-09T02:54:32;9.63;;;3.60;;
57635;SDS011;43465;50.728;4.160;2022-09-09T02:57:04;12.45;;;3.78;;
57635;SDS011;43465;50.728;4.160;2022-09-09T02:59:35;12.73;;;4.07;;
57635;SDS011;43465;50.728;4.160;2022-09-09T03:02:01;19.05;;;4.57;;
57635;SDS011;43465;50.728;4.160;2022-09-09T03:04:28;15.13;;;4.00;;
57635;SDS011;43465;50.728;4.160;2022-09-09T03:06:55;16.48;;;4.55;;
57635;SDS011;43465;50.728;4.160;2022-09-09T03:09:21;10.60;;;4.10;;
57635;SDS011;43465;50.728;4.160;2022-09-09T03:11:46;15.18;;;4.15;;
57635;SDS011;43465;50.728;4.160;2022-09-09T03:14:12;11.32;;;3.78;;
57635;SDS011;43465;50.728;4.160;2022-09-09T03:16:38;13.10;;;4.00;;
57635;SDS011;43465;50.728;4.160;2022-09-09T03:19:03;12.77;;;3.45;;
57635;SDS011;43465;50.728;4.160;2022-09-09T03:21:29;16.15;;;3.80;;
57635;SDS011;43465;50.728;4.160;2022-09-09T03:23:55;11.45;;;3.42;;
57635;SDS011;43465;50.728;4.160;2022-09-09T03:26:22;18.55;;;3.97;;
57635;SDS011;43465;50.728;4.160;2022-09-09T03:28:48;15.02;;;3.83;;
57635;SDS011;43465;50.728;4.160;2022-09-09T03:31:14;15.85;;;4.05;;
57635;SDS011;43465;50.728;4.160;2022-09-09T03:33:40;15.27;;;3.88;;
57635;SDS011;43465;50.728;4.160;2022-09-09T03:36:06;14.27;;;4.28;;
57635;SDS011;43465;50.728;4.160;2022-09-09T03:38:33;14.18;;;4.30;;
57635;SDS011;43465;50.728;4.160;2022-09-09T03:40:59;15.48;;;3.80;;
57635;SDS011;43465;50.728;4.160;2022-09-09T03:43:26;9.35;;;4.10;;
57635;SDS011;43465;50.728;4.160;2022-09-09T03:45:53;13.43;;;3.42;;
57635;SDS011;43465;50.728;4.160;2022-09-09T03:48:22;11.73;;;4.07;;
57635;SDS011;43465;50.728;4.160;2022-09-09T03:50:50;11.02;;;3.78;;
57635;SDS011;43465;50.728;4.160;2022-09-09T03:53:18;12.13;;;4.05;;
57635;SDS011;43465;50.728;4.160;2022-09-09T03:55:45;15.77;;;3.25;;
57635;SDS011;43465;50.728;4.160;2022-09-09T03:58:15;11.63;;;3.55;;
57635;SDS011;43465;50.728;4.160;2022-09-09T04:00:43;13.05;;;3.70;;
57635;SDS011;43465;50.728;4.160;2022-09-09T04:03:18;13.60;;;3.90;;
57635;SDS011;43465;50.728;4.160;2022-09-09T04:05:43;14.88;;;3.55;;
57635;SDS011;43465;50.728;4.160;2022-09-09T04:08:09;11.18;;;3.53;;
57635;SDS011;43465;50.728;4.160;2022-09-09T04:10:35;17.15;;;3.65;;
57635;SDS011;43465;50.728;4.160;2022-09-09T04:13:04;17.77;;;3.70;;
57635;SDS011;43465;50.728;4.160;2022-09-09T04:15:30;13.85;;;3.50;;
57635;SDS011;43465;50.728;4.160;2022-09-09T04:17:56;12.43;;;3.33;;
57635;SDS011;43465;50.728;4.160;2022-09-09T04:20:22;11.55;;;3.78;;
57635;SDS011;43465;50.728;4.160;2022-09-09T04:22:48;13.48;;;3.63;;
57635;SDS011;43465;50.728;4.160;2022-09-09T04:25:14;15.15;;;3.67;;
57635;SDS011;43465;50.728;4.160;2022-09-09T04:27:39;13.18;;;3.90;;
57635;SDS011;43465;50.728;4.160;2022-09-09T04:30:06;12.75;;;3.42;;
57635;SDS011;43465;50.728;4.160;2022-09-09T04:32:35;13.80;;;4.00;;
57635;SDS011;43465;50.728;4.160;2022-09-09T04:35:01;17.15;;;4.28;;
57635;SDS011;43465;50.728;4.160;2022-09-09T04:37:27;12.88;;;3.90;;
57635;SDS011;43465;50.728;4.160;2022-09-09T04:39:53;17.42;;;4.75;;
57635;SDS011;43465;50.728;4.160;2022-09-09T04:42:19;10.88;;;3.55;;
57635;SDS011;43465;50.728;4.160;2022-09-09T04:44:44;14.20;;;4.03;;
57635;SDS011;43465;50.728;4.160;2022-09-09T04:47:10;11.65;;;3.90;;
57635;SDS011;43465;50.728;4.160;2022-09-09T04:49:36;11.50;;;3.65;;
57635;SDS011;43465;50.728;4.160;2022-09-09T04:52:03;16.27;;;4.28;;
57635;SDS011;43465;50.728;4.160;2022-09-09T04:54:29;13.10;;;3.85;;
57635;SDS011;43465;50.728;4.160;2022-09-09T04:56:55;13.65;;;3.92;;
57635;SDS011;43465;50.728;4.160;2022-09-09T04:59:21;14.73;;;4.05;;
57635;SDS011;43465;50.728;4.160;2022-09-09T05:01:47;18.55;;;4.03;;
57635;SDS011;43465;50.728;4.160;2022-09-09T05:04:13;16.90;;;4.20;;
57635;SDS011;43465;50.728;4.160;2022-09-09T05:06:40;14.35;;;3.67;;
57635;SDS011;43465;50.728;4.160;2022-09-09T05:09:07;14.98;;;4.03;;
57635;SDS011;43465;50.728;4.160;2022-09-09T05:11:33;13.65;;;3.60;;
57635;SDS011;43465;50.728;4.160;2022-09-09T05:14:01;15.13;;;4.18;;
57635;SDS011;43465;50.728;4.160;2022-09-09T05:16:28;14.18;;;3.78;;
57635;SDS011;43465;50.728;4.160;2022-09-09T05:18:53;20.60;;;4.45;;
57635;SDS011;43465;50.728;4.160;2022-09-09T05:21:20;15.57;;;4.07;;
57635;SDS011;43465;50.728;4.160;2022-09-09T05:23:47;13.25;;;3.65;;
57635;SDS011;43465;50.728;4.160;2022-09-09T05:26:17;12.20;;;3.50;;
57635;SDS011;43465;50.728;4.160;2022-09-09T05:28:45;14.10;;;3.97;;
57635;SDS011;43465;50.728;4.160;2022-09-09T05:31:11;13.27;;;4.20;;
57635;SDS011;43465;50.728;4.160;2022-09-09T05:33:38;13.38;;;3.70;;
57635;SDS011;43465;50.728;4.160;2022-09-09T05:36:12;15.00;;;3.80;;
57635;SDS011;43465;50.728;4.160;2022-09-09T05:38:39;14.02;;;4.00;;
57635;SDS011;43465;50.728;4.160;2022-09-09T05:41:06;12.60;;;3.72;;
57635;SDS011;43465;50.728;4.160;2022-09-09T05:43:32;12.68;;;3.97;;
57635;SDS011;43465;50.728;4.160;2022-09-09T05:48:34;15.75;;;3.90;;
57635;SDS011;43465;50.728;4.160;2022-09-09T05:51:10;9.10;;;3.20;;
57635;SDS011;43465;50.728;4.160;2022-09-09T05:53:37;11.38;;;3.72;;
57635;SDS011;43465;50.728;4.160;2022-09-09T05:58:31;16.08;;;3.78;;
57635;SDS011;43465;50.728;4.160;2022-09-09T06:01:01;13.65;;;3.55;;
57635;SDS011;43465;50.728;4.160;2022-09-09T06:03:28;15.15;;;3.45;;
57635;SDS011;43465;50.728;4.160;2022-09-09T06:05:57;15.90;;;3.65;;
57635;SDS011;43465;50.728;4.160;2022-09-09T06:08:24;17.65;;;3.40;;
57635;SDS011;43465;50.728;4.160;2022-09-09T06:10:50;11.70;;;3.30;;
57635;SDS011;43465;50.728;4.160;2022-09-09T06:13:17;14.18;;;3.58;;
57635;SDS011;43465;50.728;4.160;2022-09-09T06:15:52;16.45;;;3.45;;
57635;SDS011;43465;50.728;4.160;2022-09-09T06:18:18;14.15;;;3.50;;
57635;SDS011;43465;50.728;4.160;2022-09-09T06:20:57;10.30;;;3.40;;
57635;SDS011;43465;50.728;4.160;2022-09-09T06:23:28;12.45;;;3.50;;
57635;SDS011;43465;50.728;4.160;2022-09-09T06:26:04;15.93;;;3.78;;
57635;SDS011;43465;50.728;4.160;2022-09-09T06:28:37;15.13;;;4.10;;
57635;SDS011;43465;50.728;4.160;2022-09-09T06:31:04;14.02;;;4.15;;
57635;SDS011;43465;50.728;4.160;2022-09-09T06:33:32;14.57;;;4.05;;
57635;SDS011;43465;50.728;4.160;2022-09-09T06:35:59;12.02;;;3.90;;
57635;SDS011;43465;50.728;4.160;2022-09-09T06:38:26;16.02;;;4.18;;
57635;SDS011;43465;50.728;4.160;2022-09-09T06:40:56;19.08;;;4.57;;
57635;SDS011;43465;50.728;4.160;2022-09-09T06:43:27;16.05;;;4.40;;
57635;SDS011;43465;50.728;4.160;2022-09-09T06:45:56;13.38;;;3.33;;
57635;SDS011;43465;50.728;4.160;2022-09-09T06:48:25;17.42;;;4.32;;
57635;SDS011;43465;50.728;4.160;2022-09-09T06:51:02;15.48;;;4.55;;
57635;SDS011;43465;50.728;4.160;2022-09-09T06:53:33;11.02;;;3.70;;
57635;SDS011;43465;50.728;4.160;2022-09-09T06:58:35;12.20;;;3.65;;
57635;SDS011;43465;50.728;4.160;2022-09-09T07:01:02;13.32;;;3.72;;
57635;SDS011;43465;50.728;4.160;2022-09-09T07:03:32;12.90;;;3.50;;
57635;SDS011;43465;50.728;4.160;2022-09-09T07:05:58;10.00;;;3.53;;
57635;SDS011;43465;50.728;4.160;2022-09-09T07:08:25;12.38;;;3.40;;
57635;SDS011;43465;50.728;4.160;2022-09-09T07:10:51;17.08;;;4.30;;
57635;SDS011;43465;50.728;4.160;2022-09-09T07:13:28;16.05;;;3.40;;
57635;SDS011;43465;50.728;4.160;2022-09-09T07:15:54;15.82;;;3.90;;
57635;SDS011;43465;50.728;4.160;2022-09-09T07:18:20;14.20;;;4.10;;
57635;SDS011;43465;50.728;4.160;2022-09-09T07:20:55;11.55;;;3.50;;
57635;SDS011;43465;50.728;4.160;2022-09-09T07:23:22;11.00;;;3.40;;
57635;SDS011;43465;50.728;4.160;2022-09-09T07:25:48;14.25;;;4.03;;
57635;SDS011;43465;50.728;4.160;2022-09-09T07:28:14;14.02;;;4.18;;
57635;SDS011;43465;50.728;4.160;2022-09-09T07:30:39;11.93;;;4.38;;
57635;SDS011;43465;50.728;4.160;2022-09-09T07:33:06;13.63;;;4.35;;
57635;SDS011;43465;50.728;4.160;2022-09-09T07:35:32;13.52;;;4.20;;
57635;SDS011;43465;50.728;4.160;2022-09-09T07:37:58;16.58;;;4.15;;
57635;SDS011;43465;50.728;4.160;2022-09-09T07:40:26;14.75;;;4.05;;
57635;SDS011;43465;50.728;4.160;2022-09-09T07:42:55;14.10;;;3.22;;
57635;SDS011;43465;50.728;4.160;2022-09-09T07:45:21;17.13;;;4.85;;
57635;SDS011;43465;50.728;4.160;2022-09-09T07:47:46;15.77;;;4.25;;
57635;SDS011;43465;50.728;4.160;2022-09-09T07:50:17;13.57;;;3.55;;
57635;SDS011;43465;50.728;4.160;2022-09-09T07:52:42;11.75;;;3.70;;
57635;SDS011;43465;50.728;4.160;2022-09-09T07:55:08;9.95;;;3.60;;
57635;SDS011;43465;50.728;4.160;2022-09-09T07:57:35;13.10;;;3.53;;
57635;SDS011;43465;50.728;4.160;2022-09-09T08:00:01;11.45;;;2.97;;
57635;SDS011;43465;50.728;4.160;2022-09-09T08:02:29;14.30;;;3.47;;
57635;SDS011;43465;50.728;4.160;2022-09-09T08:04:55;11.95;;;3.20;;
57635;SDS011;43465;50.728;4.160;2022-09-09T08:07:21;8.70;;;2.90;;
57635;SDS011;43465;50.728;4.160;2022-09-09T08:09:48;11.30;;;3.60;;
57635;SDS011;43465;50.728;4.160;2022-09-09T08:12:14;12.60;;;3.38;;
57635;SDS011;43465;50.728;4.160;2022-09-09T08:14:40;10.77;;;3.15;;
57635;SDS011;43465;50.728;4.160;2022-09-09T08:17:06;8.48;;;2.67;;
57635;SDS011;43465;50.728;4.160;2022-09-09T08:19:31;14.77;;;3.28;;
57635;SDS011;43465;50.728;4.160;2022-09-09T08:22:01;11.60;;;2.97;;
57635;SDS011;43465;50.728;4.160;2022-09-09T08:24:27;9.90;;;3.67;;
57635;SDS011;43465;50.728;4.160;2022-09-09T08:26:53;11.35;;;3.53;;
57635;SDS011;43465;50.728;4.160;2022-09-09T08:29:19;11.38;;;3.97;;
57635;SDS011;43465;50.728;4.160;2022-09-09T08:31:46;11.75;;;3.80;;
57635;SDS011;43465;50.728;4.160;2022-09-09T08:34:14;10.38;;;3.60;;
57635;SDS011;43465;50.728;4.160;2022-09-09T08:36:44;13.52;;;4.05;;
57635;SDS011;43465;50.728;4.160;2022-09-09T08:39:11;11.88;;;4.28;;
57635;SDS011;43465;50.728;4.160;2022-09-09T08:55:39;18.30;;;4.00;;
57635;SDS011;43465;50.728;4.160;2022-09-09T08:58:27;14.23;;;3.90;;
57635;SDS011;43465;50.728;4.160;2022-09-09T09:09:06;13.45;;;3.25;;
57635;SDS011;43465;50.728;4.160;2022-09-09T09:11:39;12.35;;;4.07;;
57635;SDS011;43465;50.728;4.160;2022-09-09T09:17:01;14.80;;;3.90;;
57635;SDS011;43465;50.728;4.160;2022-09-09T09:19:28;10.10;;;3.97;;
57635;SDS011;43465;50.728;4.160;2022-09-09T09:22:04;7.95;;;3.83;;
57635;SDS011;43465;50.728;4.160;2022-09-09T09:27:11;12.02;;;4.18;;
57635;SDS011;43465;50.728;4.160;2022-09-09T09:29:39;10.02;;;3.88;;
57635;SDS011;43465;50.728;4.160;2022-09-09T09:32:09;13.77;;;3.83;;
57635;SDS011;43465;50.728;4.160;2022-09-09T09:34:39;10.70;;;3.50;;
57635;SDS011;43465;50.728;4.160;2022-09-09T09:37:12;12.63;;;3.72;;
57635;SDS011;43465;50.728;4.160;2022-09-09T09:39:44;13.48;;;3.40;;
57635;SDS011;43465;50.728;4.160;2022-09-09T09:42:13;10.15;;;3.20;;
57635;SDS011;43465;50.728;4.160;2022-09-09T09:44:42;11.73;;;3.40;;
57635;SDS011;43465;50.728;4.160;2022-09-09T09:47:12;7.72;;;3.22;;
57635;SDS011;43465;50.728;4.160;2022-09-09T09:52:21;11.48;;;3.20;;
57635;SDS011;43465;50.728;4.160;2022-09-09T09:54:49;5.47;;;2.50;;
57635;SDS011;43465;50.728;4.160;2022-09-09T09:57:15;8.35;;;2.70;;
57635;SDS011;43465;50.728;4.160;2022-09-09T09:59:42;9.45;;;2.88;;
57635;SDS011;43465;50.728;4.160;2022-09-09T10:02:19;7.78;;;2.72;;
57635;SDS011;43465;50.728;4.160;2022-09-09T10:05:01;19.20;;;3.65;;
57635;SDS011;43465;50.728;4.160;2022-09-09T10:07:29;11.38;;;3.28;;
57635;SDS011;43465;50.728;4.160;2022-09-09T10:09:55;10.55;;;3.40;;
57635;SDS011;43465;50.728;4.160;2022-09-09T10:12:29;13.35;;;3.42;;
57635;SDS011;43465;50.728;4.160;2022-09-09T10:15:52;9.18;;;3.55;;
57635;SDS011;43465;50.728;4.160;2022-09-09T10:18:02;10.38;;;3.20;;
57635;SDS011;43465;50.728;4.160;2022-09-09T10:37:14;14.60;;;3.40;;
57635;SDS011;43465;50.728;4.160;2022-09-09T10:39:50;13.65;;;3.65;;
57635;SDS011;43465;50.728;4.160;2022-09-09T10:42:27;15.20;;;3.33;;
57635;SDS011;43465;50.728;4.160;2022-09-09T10:45:10;15.50;;;3.72;;
57635;SDS011;43465;50.728;4.160;2022-09-09T10:56:11;9.20;;;2.90;;
57635;SDS011;43465;50.728;4.160;2022-09-09T10:58:46;8.27;;;2.88;;
57635;SDS011;43465;50.728;4.160;2022-09-09T11:01:20;10.38;;;2.83;;
57635;SDS011;43465;50.728;4.160;2022-09-09T11:04:15;8.55;;;3.22;;
57635;SDS011;43465;50.728;4.160;2022-09-09T11:06:44;11.10;;;2.85;;
57635;SDS011;43465;50.728;4.160;2022-09-09T11:09:15;10.90;;;2.90;;
57635;SDS011;43465;50.728;4.160;2022-09-09T11:11:46;7.75;;;3.20;;
57635;SDS011;43465;50.728;4.160;2022-09-09T11:14:36;9.55;;;3.03;;
57635;SDS011;43465;50.728;4.160;2022-09-09T11:18:03;8.57;;;3.10;;
57635;SDS011;43465;50.728;4.160;2022-09-09T11:20:26;11.35;;;2.75;;
57635;SDS011;43465;50.728;4.160;2022-09-09T11:22:54;9.32;;;3.35;;
57635;SDS011;43465;50.728;4.160;2022-09-09T11:25:25;10.80;;;2.92;;
57635;SDS011;43465;50.728;4.160;2022-09-09T11:30:45;7.43;;;3.03;;
57635;SDS011;43465;50.728;4.160;2022-09-09T11:33:39;10.25;;;2.92;;
57635;SDS011;43465;50.728;4.160;2022-09-09T11:36:26;8.90;;;2.83;;
57635;SDS011;43465;50.728;4.160;2022-09-09T11:44:39;10.50;;;2.95;;
57635;SDS011;43465;50.728;4.160;2022-09-09T11:47:23;7.40;;;2.90;;
57635;SDS011;43465;50.728;4.160;2022-09-09T11:49:54;7.07;;;2.50;;
57635;SDS011;43465;50.728;4.160;2022-09-09T11:52:39;10.20;;;2.40;;
57635;SDS011;43465;50.728;4.160;2022-09-09T11:55:11;5.97;;;2.22;;
57635;SDS011;43465;50.728;4.160;2022-09-09T11:57:43;8.32;;;2.13;;
57635;SDS011;43465;50.728;4.160;2022-09-09T12:00:27;5.43;;;2.22;;
57635;SDS011;43465;50.728;4.160;2022-09-09T12:08:46;11.00;;;2.60;;
57635;SDS011;43465;50.728;4.160;2022-09-09T12:11:25;9.30;;;2.50;;
57635;SDS011;43465;50.728;4.160;2022-09-09T12:13:52;7.35;;;2.50;;
57635;SDS011;43465;50.728;4.160;2022-09-09T12:16:29;7.95;;;2.72;;
57635;SDS011;43465;50.728;4.160;2022-09-09T12:19:14;8.80;;;2.92;;
57635;SDS011;43465;50.728;4.160;2022-09-09T12:25:06;7.18;;;2.80;;
57635;SDS011;43465;50.728;4.160;2022-09-09T12:27:33;7.32;;;2.03;;
57635;SDS011;43465;50.728;4.160;2022-09-09T12:30:12;5.90;;;2.05;;
57635;SDS011;43465;50.728;4.160;2022-09-09T12:32:41;5.03;;;2.30;;
57635;SDS011;43465;50.728;4.160;2022-09-09T12:35:14;5.45;;;1.92;;
57635;SDS011;43465;50.728;4.160;2022-09-09T12:37:51;6.53;;;2.17;;
57635;SDS011;43465;50.728;4.160;2022-09-09T12:40:25;4.65;;;2.00;;
57635;SDS011;43465;50.728;4.160;2022-09-09T12:42:52;5.20;;;2.25;;
57635;SDS011;43465;50.728;4.160;2022-09-09T12:45:21;5.05;;;1.85;;
57635;SDS011;43465;50.728;4.160;2022-09-09T12:47:59;4.70;;;2.47;;
57635;SDS011;43465;50.728;4.160;2022-09-09T12:50:32;6.85;;;2.40;;
57635;SDS011;43465;50.728;4.160;2022-09-09T12:55:48;4.20;;;1.65;;
57635;SDS011;43465;50.728;4.160;2022-09-09T12:58:25;7.07;;;1.90;;
57635;SDS011;43465;50.728;4.160;2022-09-09T13:00:54;5.28;;;1.90;;
57635;SDS011;43465;50.728;4.160;2022-09-09T13:03:21;7.00;;;2.40;;
57635;SDS011;43465;50.728;4.160;2022-09-09T13:05:47;7.07;;;2.10;;
57635;SDS011;43465;50.728;4.160;2022-09-09T13:08:14;4.50;;;1.50;;
57635;SDS011;43465;50.728;4.160;2022-09-09T13:10:53;4.38;;;2.00;;
57635;SDS011;43465;50.728;4.160;2022-09-09T13:13:25;3.45;;;1.40;;
57635;SDS011;43465;50.728;4.160;2022-09-09T13:15:58;3.83;;;1.40;;
57635;SDS011;43465;50.728;4.160;2022-09-09T13:18:29;5.35;;;1.60;;
57635;SDS011;43465;50.728;4.160;2022-09-09T13:20:58;5.00;;;1.95;;
57635;SDS011;43465;50.728;4.160;2022-09-09T13:23:29;3.63;;;1.35;;
57635;SDS011;43465;50.728;4.160;2022-09-09T13:26:04;3.55;;;1.20;;
57635;SDS011;43465;50.728;4.160;2022-09-09T13:28:32;3.53;;;1.20;;
57635;SDS011;43465;50.728;4.160;2022-09-09T13:31:04;4.20;;;1.58;;
57635;SDS011;43465;50.728;4.160;2022-09-09T13:33:37;3.63;;;1.30;;
57635;SDS011;43465;50.728;4.160;2022-09-09T13:36:07;2.78;;;1.45;;
57635;SDS011;43465;50.728;4.160;2022-09-09T13:38:36;5.55;;;1.75;;
57635;SDS011;43465;50.728;4.160;2022-09-09T13:41:06;4.65;;;1.60;;
57635;SDS011;43465;50.728;4.160;2022-09-09T13:43:38;4.45;;;1.55;;
57635;SDS011;43465;50.728;4.160;2022-09-09T13:46:25;3.85;;;1.80;;
57635;SDS011;43465;50.728;4.160;2022-09-09T13:48:59;4.60;;;2.15;;
57635;SDS011;43465;50.728;4.160;2022-09-09T13:51:32;7.03;;;1.85;;
57635;SDS011;43465;50.728;4.160;2022-09-09T13:54:03;3.63;;;1.80;;
57635;SDS011;43465;50.728;4.160;2022-09-09T13:56:35;4.63;;;2.17;;
57635;SDS011;43465;50.728;4.160;2022-09-09T13:59:02;9.30;;;2.22;;
57635;SDS011;43465;50.728;4.160;2022-09-09T14:01:29;4.95;;;2.53;;
57635;SDS011;43465;50.728;4.160;2022-09-09T14:03:55;7.70;;;2.10;;
57635;SDS011;43465;50.728;4.160;2022-09-09T14:06:21;3.75;;;1.85;;
57635;SDS011;43465;50.728;4.160;2022-09-09T14:08:47;5.82;;;2.20;;
57635;SDS011;43465;50.728;4.160;2022-09-09T14:11:14;5.07;;;1.80;;
57635;SDS011;43465;50.728;4.160;2022-09-09T14:13:39;5.90;;;1.80;;
57635;SDS011;43465;50.728;4.160;2022-09-09T14:16:05;4.07;;;1.80;;
57635;SDS011;43465;50.728;4.160;2022-09-09T14:18:31;5.47;;;1.70;;
57635;SDS011;43465;50.728;4.160;2022-09-09T14:20:57;3.50;;;1.52;;
57635;SDS011;43465;50.728;4.160;2022-09-09T14:23:23;4.05;;;1.85;;
57635;SDS011;43465;50.728;4.160;2022-09-09T14:25:49;5.30;;;1.75;;
57635;SDS011;43465;50.728;4.160;2022-09-09T14:28:16;7.25;;;1.40;;
57635;SDS011;43465;50.728;4.160;2022-09-09T14:30:42;5.53;;;1.58;;
57635;SDS011;43465;50.728;4.160;2022-09-09T14:33:10;3.35;;;1.52;;
57635;SDS011;43465;50.728;4.160;2022-09-09T14:35:38;6.05;;;1.92;;
57635;SDS011;43465;50.728;4.160;2022-09-09T14:38:05;3.63;;;1.60;;
57635;SDS011;43465;50.728;4.160;2022-09-09T14:40:36;6.53;;;1.50;;
57635;SDS011;43465;50.728;4.160;2022-09-09T14:43:02;5.25;;;1.50;;
57635;SDS011;43465;50.728;4.160;2022-09-09T14:45:29;4.65;;;1.60;;
57635;SDS011;43465;50.728;4.160;2022-09-09T14:47:54;5.00;;;1.40;;
57635;SDS011;43465;50.728;4.160;2022-09-09T14:50:21;4.00;;;1.40;;
57635;SDS011;43465;50.728;4.160;2022-09-09T14:52:47;4.22;;;1.58;;
57635;SDS011;43465;50.728;4.160;2022-09-09T14:55:13;5.25;;;1.27;;
57635;SDS011;43465;50.728;4.160;2022-09-09T14:57:40;3.70;;;1.33;;
57635;SDS011;43465;50.728;4.160;2022-09-09T15:00:06;11.18;;;2.00;;
57635;SDS011;43465;50.728;4.160;2022-09-09T15:02:33;4.65;;;1.63;;
57635;SDS011;43465;50.728;4.160;2022-09-09T15:04:59;6.20;;;1.70;;
57635;SDS011;43465;50.728;4.160;2022-09-09T15:07:25;5.38;;;1.80;;
57635;SDS011;43465;50.728;4.160;2022-09-09T15:09:52;3.05;;;1.50;;
57635;SDS011;43465;50.728;4.160;2022-09-09T15:12:18;3.65;;;1.45;;
57635;SDS011;43465;50.728;4.160;2022-09-09T15:14:44;6.30;;;1.98;;
57635;SDS011;43465;50.728;4.160;2022-09-09T15:17:10;6.90;;;2.00;;
57635;SDS011;43465;50.728;4.160;2022-09-09T15:19:36;5.13;;;1.67;;
57635;SDS011;43465;50.728;4.160;2022-09-09T15:22:03;6.13;;;1.80;;
57635;SDS011;43465;50.728;4.160;2022-09-09T15:24:32;8.63;;;1.90;;
57635;SDS011;43465;50.728;4.160;2022-09-09T15:26:59;4.28;;;1.42;;
57635;SDS011;43465;50.728;4.160;2022-09-09T15:29:25;5.80;;;1.90;;
57635;SDS011;43465;50.728;4.160;2022-09-09T15:31:50;2.47;;;1.52;;
57635;SDS011;43465;50.728;4.160;2022-09-09T15:34:18;5.20;;;1.80;;
57635;SDS011;43465;50.728;4.160;2022-09-09T15:36:44;5.20;;;1.88;;
57635;SDS011;43465;50.728;4.160;2022-09-09T15:39:12;4.80;;;1.75;;
57635;SDS011;43465;50.728;4.160;2022-09-09T15:41:41;6.18;;;1.75;;
57635;SDS011;43465;50.728;4.160;2022-09-09T15:44:07;5.93;;;1.80;;
57635;SDS011;43465;50.728;4.160;2022-09-09T15:46:42;4.07;;;1.67;;
57635;SDS011;43465;50.728;4.160;2022-09-09T15:49:17;5.05;;;1.60;;
57635;SDS011;43465;50.728;4.160;2022-09-09T15:51:52;5.88;;;1.67;;
57635;SDS011;43465;50.728;4.160;2022-09-09T15:54:20;4.88;;;1.63;;
57635;SDS011;43465;50.728;4.160;2022-09-09T15:56:52;4.57;;;1.55;;
57635;SDS011;43465;50.728;4.160;2022-09-09T15:59:23;3.72;;;1.65;;
57635;SDS011;43465;50.728;4.160;2022-09-09T16:01:49;7.80;;;1.88;;
57635;SDS011;43465;50.728;4.160;2022-09-09T16:04:19;5.45;;;2.10;;
57635;SDS011;43465;50.728;4.160;2022-09-09T16:06:58;5.05;;;2.22;;
57635;SDS011;43465;50.728;4.160;2022-09-09T16:09:25;3.58;;;1.70;;
57635;SDS011;43465;50.728;4.160;2022-09-09T16:11:52;5.05;;;2.03;;
57635;SDS011;43465;50.728;4.160;2022-09-09T16:14:21;3.38;;;1.75;;
57635;SDS011;43465;50.728;4.160;2022-09-09T16:16:46;2.83;;;1.73;;
57635;SDS011;43465;50.728;4.160;2022-09-09T16:19:13;4.78;;;1.48;;
57635;SDS011;43465;50.728;4.160;2022-09-09T16:21:40;10.95;;;3.60;;
57635;SDS011;43465;50.728;4.160;2022-09-09T16:24:08;8.13;;;2.13;;
57635;SDS011;43465;50.728;4.160;2022-09-09T16:26:36;4.63;;;1.90;;
57635;SDS011;43465;50.728;4.160;2022-09-09T16:29:03;5.38;;;1.80;;
57635;SDS011;43465;50.728;4.160;2022-09-09T16:31:29;8.13;;;1.80;;
57635;SDS011;43465;50.728;4.160;2022-09-09T16:33:57;6.07;;;1.90;;
57635;SDS011;43465;50.728;4.160;2022-09-09T16:36:26;7.95;;;1.95;;
57635;SDS011;43465;50.728;4.160;2022-09-09T16:38:55;9.27;;;2.47;;
57635;SDS011;43465;50.728;4.160;2022-09-09T16:41:22;3.80;;;1.50;;
57635;SDS011;43465;50.728;4.160;2022-09-09T16:43:59;5.68;;;1.30;;
57635;SDS011;43465;50.728;4.160;2022-09-09T16:46:30;4.47;;;1.52;;
57635;SDS011;43465;50.728;4.160;2022-09-09T16:48:57;6.57;;;1.52;;
57635;SDS011;43465;50.728;4.160;2022-09-09T16:51:25;5.18;;;1.15;;
57635;SDS011;43465;50.728;4.160;2022-09-09T16:53:53;8.05;;;1.70;;
57635;SDS011;43465;50.728;4.160;2022-09-09T16:56:23;4.43;;;1.35;;
57635;SDS011;43465;50.728;4.160;2022-09-09T16:58:51;5.55;;;1.30;;
57635;SDS011;43465;50.728;4.160;2022-09-09T17:01:25;6.72;;;1.52;;
57635;SDS011;43465;50.728;4.160;2022-09-09T17:03:59;6.03;;;1.52;;
57635;SDS011;43465;50.728;4.160;2022-09-09T17:06:26;8.25;;;1.55;;
57635;SDS011;43465;50.728;4.160;2022-09-09T17:08:56;7.20;;;1.50;;
57635;SDS011;43465;50.728;4.160;2022-09-09T17:11:24;10.00;;;1.80;;
57635;SDS011;43465;50.728;4.160;2022-09-09T17:13:50;4.60;;;1.60;;
57635;SDS011;43465;50.728;4.160;2022-09-09T17:16:17;6.85;;;1.83;;
57635;SDS011;43465;50.728;4.160;2022-09-09T17:18:46;4.53;;;1.50;;
57635;SDS011;43465;50.728;4.160;2022-09-09T17:21:12;6.15;;;1.48;;